Hidden Valley, Pennsylvania
Current Conditions -  °F | °C
As of 2:15 PM on Friday 28 Nov 2014 (Local Time) from K2G9 Reporting Station
Overcast Overcast  
Wind Chill:   Ceiling: 2500
Heat Index: 21°   Visibility: 10mi
Dew Point: 12°   Wind: 13mph
Humidity: 68%   Direction: 280°W
Pressure: 30.18"   Gusts: NA
Location:  40.06°N, 79.26°W
Report Text: K2G9 281915Z AUTO 28011KT 10SM OVC025 M06/M11 A3018 RMK AO2
Loading
Personal Weather Stations






























Interactive Weather Map New forecast layout! Learn more

10-Day Weather Forecast

Advertisements
Track Severe Weather on mobile